Time;durP1;ratioP1;P1;durP2;ratioP2;P2;SDS_P1;SDS_P2;PMS_P1;PMS_P2;Temp;Humidity;BMP_temperature;BMP_pressure;BME280_temperature;BME280_humidity;BME280_pressure;Samples;Min_cycle;Max_cycle;Signal;HPM_P1;HPM_P2
2022/04/18 00:01:06;;;;;;;7.10;3.70;;;;;;;3.88;47.78;99308.88;105915;1277;99341;-65
2022/04/18 00:03:37;;;;;;;7.90;3.60;;;;;;;3.87;47.67;99302.08;105899;1277;108474;-67
2022/04/18 00:06:05;;;;;;;10.40;4.40;;;;;;;3.89;47.65;99301.67;105882;1277;99346;-65
2022/04/18 00:08:33;;;;;;;10.70;4.20;;;;;;;3.87;47.59;99298.58;105913;1277;99210;-63
2022/04/18 00:11:02;;;;;;;9.90;4.10;;;;;;;3.83;47.41;99296.80;105959;1277;113228;-65
2022/04/18 00:13:31;;;;;;;11.00;4.20;;;;;;;3.80;47.85;99295.72;105901;1276;99455;-65
2022/04/18 00:15:59;;;;;;;10.60;4.20;;;;;;;3.79;47.66;99294.88;105834;1276;108368;-65
2022/04/18 00:18:27;;;;;;;10.50;4.10;;;;;;;3.78;47.97;99295.81;105924;1276;96655;-66
2022/04/18 00:20:55;;;;;;;13.20;4.70;;;;;;;3.75;47.74;99299.05;105912;1276;97653;-65
2022/04/18 00:23:24;;;;;;;14.00;5.00;;;;;;;3.73;47.64;99300.37;105866;1276;111909;-64
2022/04/18 00:25:53;;;;;;;13.00;5.00;;;;;;;3.67;47.58;99299.20;105904;1276;99390;-66
2022/04/18 00:28:22;;;;;;;15.50;5.70;;;;;;;3.59;47.70;99295.67;105950;1277;108345;-66
2022/04/18 00:30:53;;;;;;;14.30;5.30;;;;;;;3.52;47.86;99293.15;105916;1276;99451;-66
2022/04/18 00:33:21;;;;;;;17.60;5.40;;;;;;;3.48;47.88;99293.66;105909;1276;97623;-66
2022/04/18 00:35:49;;;;;;;17.90;5.30;;;;;;;3.44;47.98;99288.02;105900;1276;113422;-67
2022/04/18 00:38:17;;;;;;;16.00;5.30;;;;;;;3.41;47.78;99290.08;105949;1276;99479;-65
2022/04/18 00:40:49;;;;;;;15.90;5.50;;;;;;;3.39;48.05;99288.23;105852;1276;108222;-65
2022/04/18 00:43:17;;;;;;;16.20;5.20;;;;;;;3.36;47.97;99284.66;105837;1276;96646;-66
2022/04/18 00:45:47;;;;;;;14.20;4.80;;;;;;;3.32;48.06;99279.55;105893;1276;99192;-65
2022/04/18 00:48:17;;;;;;;14.30;5.10;;;;;;;3.30;48.26;99277.53;105872;1278;113276;-65
2022/04/18 00:50:46;;;;;;;16.10;5.50;;;;;;;3.27;48.42;99275.17;105903;1276;99212;-65
2022/04/18 00:53:14;;;;;;;12.80;4.90;;;;;;;3.25;48.25;99274.39;105818;1276;108144;-66
2022/04/18 00:55:42;;;;;;;12.70;4.80;;;;;;;3.21;48.33;99269.97;105861;1276;99446;-66
2022/04/18 00:58:11;;;;;;;15.40;5.50;;;;;;;3.15;48.28;99264.09;105881;1276;97943;-64
2022/04/18 01:00:40;;;;;;;12.90;4.90;;;;;;;3.10;48.40;99262.36;105894;1276;112757;-64
2022/04/18 01:03:08;;;;;;;11.80;4.60;;;;;;;3.07;48.92;99256.69;105881;1276;96666;-66
2022/04/18 01:05:37;;;;;;;12.70;4.40;;;;;;;3.05;48.82;99254.15;105859;1276;108588;-65
2022/04/18 01:08:07;;;;;;;14.60;4.90;;;;;;;3.04;48.74;99251.20;105914;1276;99240;-65
2022/04/18 01:10:38;;;;;;;12.10;4.60;;;;;;;3.02;48.83;99245.85;105871;1277;99294;-67
2022/04/18 01:13:06;;;;;;;11.70;4.80;;;;;;;3.03;48.63;99245.11;105846;1276;113678;-66
2022/04/18 01:15:34;;;;;;;12.50;4.30;;;;;;;3.00;48.87;99240.65;105835;1276;99317;-66
2022/04/18 01:18:03;;;;;;;9.60;4.20;;;;;;;2.97;48.88;99238.13;105890;1277;108358;-67
2022/04/18 01:20:34;;;;;;;13.00;4.00;;;;;;;2.93;48.89;99240.06;105891;1277;99195;-67
2022/04/18 01:23:06;;;;;;;8.90;4.10;;;;;;;2.86;48.94;99236.84;105891;1277;96634;-66
2022/04/18 01:31:11;;;;;;;9.30;3.90;;;;;;;2.82;48.89;99222.26;105873;1277;108445;-66
2022/04/18 01:33:40;;;;;;;9.20;4.30;;;;;;;2.78;48.90;99222.58;105855;1277;99307;-67
2022/04/18 01:36:08;;;;;;;10.50;4.30;;;;;;;2.76;48.89;99223.36;105878;1277;99265;-66
2022/04/18 01:38:37;;;;;;;9.90;4.00;;;;;;;2.75;49.13;99221.64;105817;1277;113367;-65
2022/04/18 01:41:04;;;;;;;11.90;4.50;;;;;;;2.76;49.21;99222.31;105783;1278;99361;-66
2022/04/18 01:43:33;;;;;;;12.70;4.30;;;;;;;2.76;49.36;99215.66;105887;1277;108421;-65
2022/04/18 01:46:01;;;;;;;11.90;4.70;;;;;;;2.76;49.24;99211.98;105861;1278;96685;-65
2022/04/18 01:48:30;;;;;;;13.80;4.90;;;;;;;2.76;49.34;99213.02;105917;1277;100507;-65
2022/04/18 01:50:58;;;;;;;12.70;4.80;;;;;;;2.74;49.41;99210.65;105831;1277;113415;-65
2022/04/18 01:53:27;;;;;;;13.20;4.40;;;;;;;2.73;49.76;99207.90;105840;1276;99313;-65
2022/04/18 01:55:57;;;;;;;12.40;4.60;;;;;;;2.72;49.72;99204.59;105822;1276;108219;-65
2022/04/18 01:58:25;;;;;;;7.80;4.10;;;;;;;2.71;49.76;99206.23;105826;1277;99268;-65
2022/04/18 02:00:54;;;;;;;9.50;3.90;;;;;;;2.69;49.70;99206.98;105883;1277;99355;-66
2022/04/18 02:03:23;;;;;;;12.00;4.30;;;;;;;2.69;49.70;99206.45;105826;1276;113863;-64
2022/04/18 02:05:55;;;;;;;11.00;4.00;;;;;;;2.69;49.90;99204.70;105872;1276;100143;-66
2022/04/18 02:08:24;;;;;;;11.30;4.10;;;;;;;2.69;49.78;99201.89;105848;1276;108323;-67
2022/04/18 02:10:52;;;;;;;10.80;4.40;;;;;;;2.69;49.85;99198.94;105910;1277;99256;-70
2022/04/18 02:13:21;;;;;;;9.20;3.90;;;;;;;2.70;50.08;99195.05;105906;1278;100552;-65
2022/04/18 02:15:50;;;;;;;13.40;4.70;;;;;;;2.72;49.91;99196.38;105851;1276;113757;-66
2022/04/18 02:18:19;;;;;;;11.90;4.00;;;;;;;2.73;50.03;99192.48;105911;1276;99198;-67
2022/04/18 02:20:47;;;;;;;11.30;4.30;;;;;;;2.73;50.05;99192.65;105884;1276;108852;-65
2022/04/18 02:23:16;;;;;;;10.20;3.80;;;;;;;2.74;50.14;99189.64;105870;1276;99394;-65
2022/04/18 02:25:44;;;;;;;8.40;4.10;;;;;;;2.76;50.19;99190.10;105900;1278;96625;-66
2022/04/18 02:28:12;;;;;;;11.10;4.90;;;;;;;2.78;50.15;99188.27;105889;1278;113448;-65
2022/04/18 02:30:39;;;;;;;10.60;4.20;;;;;;;2.81;50.20;99189.36;105927;1277;99324;-66
2022/04/18 02:33:08;;;;;;;10.40;4.20;;;;;;;2.83;50.24;99186.68;105859;1276;108833;-65
2022/04/18 02:35:37;;;;;;;12.40;4.70;;;;;;;2.84;50.58;99182.25;105872;1277;99260;-65
2022/04/18 02:38:06;;;;;;;12.30;5.10;;;;;;;2.86;50.66;99185.33;105918;1277;99327;-66
2022/04/18 02:40:35;;;;;;;10.70;4.20;;;;;;;2.88;50.57;99181.75;105890;1277;113177;-65
2022/04/18 02:43:04;;;;;;;10.90;4.20;;;;;;;2.89;50.72;99181.68;105881;1276;99823;-66
2022/04/18 02:45:35;;;;;;;11.30;4.10;;;;;;;2.90;50.86;99180.44;105894;1276;107647;-65
2022/04/18 02:48:06;;;;;;;12.30;4.60;;;;;;;2.91;50.68;99180.92;105876;1276;99326;-65
2022/04/18 02:50:34;;;;;;;8.60;3.70;;;;;;;2.89;50.67;99173.14;105873;1276;99232;-68
2022/04/18 02:53:05;;;;;;;11.40;4.20;;;;;;;2.80;50.63;99167.33;105847;1276;113095;-64
2022/04/18 02:55:34;;;;;;;14.20;4.50;;;;;;;2.81;50.88;99159.79;105904;1276;99272;-65
2022/04/18 02:58:03;;;;;;;11.30;4.10;;;;;;;2.83;50.99;99158.47;105890;1276;108616;-65
2022/04/18 03:00:31;;;;;;;10.10;4.30;;;;;;;2.87;51.08;99159.02;105883;1276;99219;-65
2022/04/18 03:03:01;;;;;;;12.20;4.30;;;;;;;2.88;50.77;99159.68;105931;1276;99229;-65
2022/04/18 03:05:30;;;;;;;11.80;4.50;;;;;;;2.89;51.05;99154.90;105948;1276;111769;-65
2022/04/18 03:07:58;;;;;;;9.60;4.20;;;;;;;2.88;50.91;99160.72;105935;1276;99555;-64
2022/04/18 03:13:14;;;;;;;13.50;4.40;;;;;;;2.74;50.69;99158.48;105921;1277;99282;-66
2022/04/18 03:15:42;;;;;;;9.60;4.00;;;;;;;2.56;50.75;99156.88;105885;1278;100328;-65
2022/04/18 03:18:13;;;;;;;11.70;4.20;;;;;;;2.50;50.63;99154.80;105912;1279;114087;-68
2022/04/18 03:20:43;;;;;;;10.40;4.30;;;;;;;2.46;50.42;99152.88;105907;1278;96597;-66
2022/04/18 03:23:13;;;;;;;12.60;4.90;;;;;;;2.29;50.72;99152.44;105898;1276;108187;-66
2022/04/18 03:25:41;;;;;;;13.60;5.30;;;;;;;2.17;50.89;99154.14;105905;1276;99346;-66
2022/04/18 03:28:09;;;;;;;12.80;5.10;;;;;;;2.19;51.45;99155.98;105891;1276;99260;-69
2022/04/18 03:30:39;;;;;;;14.90;6.10;;;;;;;2.26;51.50;99156.58;105817;1279;113921;-67
2022/04/18 03:33:08;;;;;;;14.60;5.80;;;;;;;2.32;51.55;99154.61;105780;1278;99386;-66
2022/04/18 03:35:35;;;;;;;11.50;4.50;;;;;;;2.36;51.81;99158.50;105891;1277;108314;-66
2022/04/18 03:40:52;;;;;;;13.70;5.10;;;;;;;2.39;51.62;99157.54;105920;1278;99235;-66
2022/04/18 03:43:21;;;;;;;13.90;5.80;;;;;;;2.37;51.74;99154.80;105756;1277;251100;-66
2022/04/18 03:45:49;;;;;;;12.80;4.90;;;;;;;2.37;51.74;99151.29;105956;1277;99579;-68
2022/04/18 03:48:17;;;;;;;13.40;5.40;;;;;;;2.42;51.79;99153.06;105937;1277;108815;-67
2022/04/18 03:50:45;;;;;;;15.00;5.80;;;;;;;2.45;51.57;99154.31;105945;1277;99198;-66
2022/04/18 03:53:14;;;;;;;14.00;5.40;;;;;;;2.48;51.81;99152.09;105977;1278;99266;-65
2022/04/18 03:55:42;;;;;;;14.50;5.50;;;;;;;2.51;52.08;99152.87;105908;1277;113366;-66
2022/04/18 03:58:10;;;;;;;12.60;5.10;;;;;;;2.53;52.10;99148.23;105938;1275;97950;-67
2022/04/18 04:00:42;;;;;;;12.90;4.90;;;;;;;2.56;51.98;99149.38;105920;1276;108448;-67
2022/04/18 04:03:12;;;;;;;12.60;4.90;;;;;;;2.59;52.26;99149.77;105958;1276;99252;-66
2022/04/18 04:05:40;;;;;;;13.30;5.30;;;;;;;2.61;52.10;99149.52;105966;1277;99347;-66
2022/04/18 04:08:08;;;;;;;12.50;5.10;;;;;;;2.63;52.13;99145.77;105898;1277;113307;-66
2022/04/18 04:10:38;;;;;;;11.70;4.90;;;;;;;2.65;52.20;99145.33;105958;1278;96796;-65
2022/04/18 04:13:07;;;;;;;13.40;5.00;;;;;;;2.62;52.30;99144.20;105946;1276;108503;-68
2022/04/18 04:15:37;;;;;;;15.50;5.90;;;;;;;2.57;52.18;99142.14;105962;1277;99347;-65
2022/04/18 04:18:05;;;;;;;13.00;5.20;;;;;;;2.56;52.41;99141.83;105980;1276;97764;-65
2022/04/18 04:20:34;;;;;;;16.10;5.70;;;;;;;2.59;52.39;99142.06;105928;1276;113415;-65
2022/04/18 04:23:04;;;;;;;11.70;5.30;;;;;;;2.61;52.67;99141.30;105991;1276;99249;-65
2022/04/18 04:25:33;;;;;;;13.80;5.70;;;;;;;2.54;52.60;99144.52;105940;1276;107756;-64
2022/04/18 04:28:03;;;;;;;14.50;5.30;;;;;;;2.45;52.39;99144.02;105934;1277;99351;-64
2022/04/18 04:30:31;;;;;;;11.20;4.70;;;;;;;2.43;52.68;99144.94;105987;1276;99232;-70
2022/04/18 04:32:59;;;;;;;12.60;5.20;;;;;;;2.48;52.63;99146.84;105951;1276;113415;-68
2022/04/18 04:35:29;;;;;;;13.30;5.40;;;;;;;2.54;52.93;99146.81;105952;1276;99327;-65
2022/04/18 04:37:57;;;;;;;13.20;4.70;;;;;;;2.60;52.88;99148.00;105915;1276;108447;-65
2022/04/18 04:40:26;;;;;;;12.90;5.00;;;;;;;2.66;52.87;99146.34;105930;1276;99267;-66
2022/04/18 04:42:55;;;;;;;10.50;4.50;;;;;;;2.71;53.14;99146.31;105929;1276;99308;-65
2022/04/18 04:45:23;;;;;;;14.00;5.20;;;;;;;2.75;53.13;99143.39;105920;1275;113111;-64
2022/04/18 04:47:51;;;;;;;9.00;4.40;;;;;;;2.79;53.03;99143.92;105939;1276;99332;-65
2022/04/18 04:50:20;;;;;;;9.20;4.20;;;;;;;2.83;53.19;99138.66;105917;1276;108286;-65
2022/04/18 04:52:50;;;;;;;10.20;4.20;;;;;;;2.89;53.05;99139.67;105908;1278;99219;-65
2022/04/18 04:55:19;;;;;;;8.20;4.00;;;;;;;2.93;53.11;99136.88;105941;1277;99331;-64
2022/04/18 04:57:46;;;;;;;11.00;4.70;;;;;;;2.97;53.08;99136.91;105960;1276;113277;-65
2022/04/18 05:00:15;;;;;;;9.80;4.30;;;;;;;3.00;52.80;99132.91;105985;1276;100286;-64
2022/04/18 05:02:44;;;;;;;11.30;4.00;;;;;;;3.04;52.95;99130.82;105954;1276;108237;-64
2022/04/18 05:05:12;;;;;;;11.40;4.60;;;;;;;3.09;53.00;99129.57;105924;1276;99202;-66
2022/04/18 05:07:40;;;;;;;10.90;4.00;;;;;;;3.13;52.99;99127.84;105822;1276;99238;-65
2022/04/18 05:10:09;;;;;;;11.80;4.40;;;;;;;3.17;53.13;99129.42;105793;1276;113363;-65
2022/04/18 05:12:37;;;;;;;10.40;4.70;;;;;;;3.20;53.18;99130.55;105823;1276;99252;-65
2022/04/18 05:15:08;;;;;;;9.30;4.10;;;;;;;3.24;53.17;99129.87;105765;1277;108851;-66
2022/04/18 05:17:36;;;;;;;8.40;4.30;;;;;;;3.26;53.20;99130.99;105734;1276;99254;-66
2022/04/18 05:20:05;;;;;;;12.50;4.90;;;;;;;3.27;53.20;99133.77;105702;1276;99192;-67
2022/04/18 05:22:34;;;;;;;12.20;4.70;;;;;;;3.30;53.44;99133.09;106049;1276;111783;-64
2022/04/18 05:25:05;;;;;;;11.80;5.00;;;;;;;3.35;53.31;99132.55;105814;1278;96767;-66
2022/04/18 05:27:34;;;;;;;10.20;4.80;;;;;;;3.38;53.55;99135.91;105812;1276;108476;-64
2022/04/18 05:30:06;;;;;;;13.30;5.50;;;;;;;3.42;53.34;99132.61;105914;1276;99356;-65
2022/04/18 05:32:34;;;;;;;12.60;5.40;;;;;;;3.45;53.68;99133.73;105938;1276;99183;-65
2022/04/18 05:35:05;;;;;;;15.50;5.80;;;;;;;3.49;53.28;99132.66;105807;1276;113416;-64
2022/04/18 05:37:33;;;;;;;15.90;6.00;;;;;;;3.52;53.85;99129.55;105814;1276;99295;-65
2022/04/18 05:40:03;;;;;;;16.50;6.20;;;;;;;3.57;53.65;99132.86;105769;1276;107570;-67
2022/04/18 05:42:32;;;;;;;17.90;7.50;;;;;;;3.62;53.74;99128.42;105824;1276;99328;-63
2022/04/18 05:45:02;;;;;;;15.40;5.50;;;;;;;3.67;53.92;99128.73;105871;1276;99342;-65
2022/04/18 05:47:30;;;;;;;20.20;7.00;;;;;;;3.70;53.63;99127.55;105944;1276;112809;-65
2022/04/18 05:49:59;;;;;;;15.90;6.40;;;;;;;3.73;53.69;99124.45;105894;1276;99269;-65
2022/04/18 05:52:28;;;;;;;17.00;6.40;;;;;;;3.78;53.78;99125.28;105844;1276;107901;-65
2022/04/18 05:54:57;;;;;;;16.90;6.80;;;;;;;3.83;53.82;99124.01;105714;1277;97713;-68
2022/04/18 05:57:26;;;;;;;17.80;6.30;;;;;;;3.88;53.84;99123.25;105830;1276;96647;-65
2022/04/18 05:59:55;;;;;;;17.70;7.00;;;;;;;3.92;53.86;99120.45;105807;1276;112610;-65
2022/04/18 06:02:23;;;;;;;14.30;5.80;;;;;;;3.97;53.85;99122.69;105777;1276;99259;-67
2022/04/18 06:04:51;;;;;;;17.00;6.30;;;;;;;4.01;53.66;99119.70;105775;1277;108364;-70
2022/04/18 06:07:19;;;;;;;16.10;6.10;;;;;;;4.06;53.62;99120.20;105776;1276;99155;-67
2022/04/18 06:09:46;;;;;;;13.50;5.50;;;;;;;4.09;53.78;99120.94;105816;1276;99233;-65
2022/04/18 06:12:21;;;;;;;16.30;6.20;;;;;;;4.13;53.95;99111.11;105833;1276;113483;-68
2022/04/18 06:14:49;;;;;;;17.10;6.10;;;;;;;4.16;53.79;99112.35;105844;1276;97782;-67
2022/04/18 06:17:17;;;;;;;16.40;6.30;;;;;;;4.19;53.91;99112.95;105838;1276;108427;-69
2022/04/18 06:19:45;;;;;;;16.20;6.00;;;;;;;4.23;54.13;99111.38;105790;1276;99267;-67
2022/04/18 06:22:13;;;;;;;16.10;5.80;;;;;;;4.27;53.82;99109.58;105796;1276;99312;-67
2022/04/18 06:24:41;;;;;;;12.70;4.70;;;;;;;4.31;54.16;99105.54;105890;1276;113079;-67
2022/04/18 06:27:11;;;;;;;13.90;5.10;;;;;;;4.35;53.83;99105.71;105843;1277;99427;-69
2022/04/18 06:29:39;;;;;;;13.80;5.50;;;;;;;4.40;54.24;99103.39;105887;1278;108606;-71
2022/04/18 06:32:09;;;;;;;13.40;5.00;;;;;;;4.44;53.92;99105.14;105945;1276;100030;-67
2022/04/18 06:34:47;;;;;;;15.80;5.90;;;;;;;4.44;53.85;99100.70;105879;1278;97678;-66
2022/04/18 06:37:15;;;;;;;15.90;5.80;;;;;;;4.47;54.10;99096.20;105811;1277;113153;-67
2022/04/18 06:39:44;;;;;;;13.60;5.50;;;;;;;4.52;54.03;99096.65;105799;1279;99233;-67
2022/04/18 06:42:14;;;;;;;16.30;5.90;;;;;;;4.58;54.27;99092.36;105846;1276;108358;-67
2022/04/18 06:44:43;;;;;;;15.00;6.30;;;;;;;4.64;54.45;99085.39;105845;1276;97989;-69
2022/04/18 06:47:11;;;;;;;12.90;5.00;;;;;;;4.72;54.33;99085.70;105928;1276;96692;-69
2022/04/18 06:49:41;;;;;;;12.40;4.80;;;;;;;4.78;54.29;99083.31;106036;1276;113415;-66
2022/04/18 06:52:10;;;;;;;14.30;5.50;;;;;;;4.84;54.43;99081.10;105926;1276;99237;-66
2022/04/18 06:54:39;;;;;;;13.50;5.60;;;;;;;4.92;54.35;99083.86;105892;1276;108357;-68
2022/04/18 06:57:07;;;;;;;12.50;4.90;;;;;;;4.99;54.49;99083.19;105942;1276;99348;-66
2022/04/18 06:59:37;;;;;;;14.20;5.10;;;;;;;5.06;54.37;99084.41;105830;1279;97755;-67
2022/04/18 07:02:08;;;;;;;13.70;5.40;;;;;;;5.13;54.43;99084.59;105905;1276;113242;-66
2022/04/18 07:04:36;;;;;;;16.10;5.40;;;;;;;5.20;54.40;99079.14;105816;1278;99264;-66
2022/04/18 07:07:10;;;;;;;11.80;5.00;;;;;;;5.29;54.41;99076.06;105803;1276;107778;-66
2022/04/18 07:09:39;;;;;;;14.40;5.50;;;;;;;5.43;54.51;99077.11;105796;1276;99264;-66
2022/04/18 07:12:08;;;;;;;13.80;5.10;;;;;;;5.62;54.37;99077.02;105783;1276;96599;-67
2022/04/18 07:14:38;;;;;;;12.40;4.50;;;;;;;6.01;54.21;99070.39;105737;1278;113319;-67
2022/04/18 07:17:08;;;;;;;12.30;4.50;;;;;;;6.47;53.72;99065.65;105888;1276;99247;-69
2022/04/18 07:19:36;;;;;;;13.90;5.10;;;;;;;6.69;53.98;99065.48;105791;1278;107766;-67
2022/04/18 07:22:06;;;;;;;15.00;5.80;;;;;;;6.79;54.10;99063.16;105802;1276;99238;-66
2022/04/18 07:24:35;;;;;;;14.10;5.00;;;;;;;6.94;54.48;99059.50;105784;1278;99337;-68
2022/04/18 07:27:04;;;;;;;14.40;5.20;;;;;;;7.48;53.68;99056.33;105848;1276;113527;-67
2022/04/18 07:29:32;;;;;;;10.80;4.60;;;;;;;7.60;54.19;99053.15;105814;1276;99256;-68
2022/04/18 07:32:02;;;;;;;9.90;4.30;;;;;;;7.66;54.05;99056.88;105781;1278;108327;-67
2022/04/18 07:34:33;;;;;;;11.50;4.60;;;;;;;7.66;54.09;99053.66;105791;1278;99237;-67
2022/04/18 07:37:02;;;;;;;10.30;4.70;;;;;;;7.63;54.01;99054.02;105837;1276;97711;-67
2022/04/18 07:39:30;;;;;;;12.00;4.40;;;;;;;7.57;53.71;99052.08;105846;1277;113537;-67
2022/04/18 07:41:58;;;;;;;10.70;4.40;;;;;;;7.68;53.79;99051.05;105855;1276;100178;-66
2022/04/18 07:44:27;;;;;;;9.60;4.80;;;;;;;9.35;52.19;99041.23;105795;1277;108367;-68
2022/04/18 07:46:55;;;;;;;13.30;4.90;;;;;;;11.51;51.47;99036.05;105774;1276;97892;-67
2022/04/18 07:49:25;;;;;;;12.20;4.50;;;;;;;13.50;51.42;99026.55;105839;1276;99349;-66
2022/04/18 07:51:54;;;;;;;11.50;4.40;;;;;;;15.49;50.98;99016.88;105775;1276;113241;-67
2022/04/18 07:54:23;;;;;;;10.40;4.40;;;;;;;17.23;51.21;99014.05;105865;1276;99326;-66
2022/04/18 07:56:53;;;;;;;12.70;4.40;;;;;;;18.74;50.64;99012.64;105871;1276;108354;-66
2022/04/18 07:59:22;;;;;;;5.60;3.30;;;;;;;20.17;50.43;99009.39;105814;1276;96684;-67
2022/04/18 08:01:50;;;;;;;7.60;3.30;;;;;;;21.30;50.16;99008.84;105824;1276;99138;-67
2022/04/18 08:04:18;;;;;;;7.80;3.40;;;;;;;22.37;49.96;99002.39;105792;1276;113412;-66
2022/04/18 08:06:47;;;;;;;8.30;3.20;;;;;;;23.31;49.78;99003.86;105868;1276;99257;-67
2022/04/18 08:09:15;;;;;;;7.20;3.00;;;;;;;24.06;49.45;99004.14;105811;1276;108158;-68
2022/04/18 08:11:45;;;;;;;5.50;2.80;;;;;;;24.61;49.92;98997.27;105767;1276;99296;-67
2022/04/18 08:14:15;;;;;;;5.70;3.00;;;;;;;25.17;49.36;98999.34;105754;1276;99208;-67
2022/04/18 08:16:44;;;;;;;7.70;3.90;;;;;;;24.90;49.79;98990.71;105783;1276;113417;-67
2022/04/18 08:19:13;;;;;;;5.80;3.20;;;;;;;23.81;50.77;98995.59;105882;1276;97690;-68
2022/04/18 08:21:42;;;;;;;5.10;2.90;;;;;;;22.84;50.47;98996.90;105726;1279;108585;-68
2022/04/18 08:24:09;;;;;;;5.80;2.80;;;;;;;21.66;50.08;98995.23;105745;1278;97754;-69
2022/04/18 08:26:40;;;;;;;7.60;3.00;;;;;;;20.71;49.46;98996.44;105766;1278;99203;-68
2022/04/18 08:29:09;;;;;;;7.00;3.30;;;;;;;20.74;48.80;98989.36;105816;1276;111756;-67
2022/04/18 08:31:37;;;;;;;6.10;2.70;;;;;;;20.53;48.69;98985.90;105826;1277;99067;-68
2022/04/18 08:34:12;;;;;;;5.30;3.00;;;;;;;20.30;48.46;98983.23;105850;1276;107746;-66
2022/04/18 08:36:41;;;;;;;10.20;4.00;;;;;;;20.42;48.00;98987.48;105855;1276;99159;-67
2022/04/18 08:39:11;;;;;;;11.20;4.60;;;;;;;19.80;48.24;98986.55;105868;1276;99235;-70
2022/04/18 08:41:44;;;;;;;12.10;5.10;;;;;;;19.08;47.87;98994.30;105605;1277;112831;-70
2022/04/18 08:44:13;;;;;;;8.90;3.20;;;;;;;18.38;47.47;98994.61;105744;1279;99315;-69
2022/04/18 08:46:41;;;;;;;6.10;2.60;;;;;;;17.51;47.12;98996.36;105827;1276;107819;-68
2022/04/18 08:55:02;;;;;;;7.80;3.10;;;;;;;15.22;46.29;99007.49;105622;1276;113362;-68
2022/04/18 08:57:31;;;;;;;8.00;3.10;;;;;;;14.82;46.16;99008.41;105733;1279;99980;-69
2022/04/18 09:00:00;;;;;;;7.10;3.70;;;;;;;14.42;45.80;99004.89;105821;1276;109189;-68
2022/04/18 09:02:29;;;;;;;7.10;3.60;;;;;;;13.75;45.23;99023.23;105787;1278;99323;-68
2022/04/18 09:04:58;;;;;;;9.20;4.70;;;;;;;13.10;45.16;99018.82;105788;1277;99226;-69
2022/04/18 09:07:27;;;;;;;7.70;3.40;;;;;;;12.78;45.24;99010.98;105896;1276;113362;-69
2022/04/18 09:09:56;;;;;;;7.60;3.30;;;;;;;12.58;44.84;99010.84;105848;1276;99263;-70
2022/04/18 09:12:29;;;;;;;7.80;2.70;;;;;;;12.35;44.73;99016.98;105870;1278;110421;-70
2022/04/18 09:15:00;;;;;;;6.60;3.00;;;;;;;12.12;44.51;99012.58;105927;1276;99333;-70
2022/04/18 09:17:31;;;;;;;9.20;3.70;;;;;;;11.76;44.57;99014.08;105976;1276;99118;-71
2022/04/18 09:20:09;;;;;;;16.10;7.00;;;;;;;11.45;44.51;99008.88;105889;1276;112697;-71
2022/04/18 09:22:46;;;;;;;10.70;4.90;;;;;;;11.16;44.41;99013.95;105925;1276;99295;-73
2022/04/18 09:25:22;;;;;;;13.50;5.40;;;;;;;10.85;44.18;99010.54;105863;1277;108214;-71
2022/04/18 09:27:56;;;;;;;9.20;3.90;;;;;;;10.60;44.17;99009.23;105704;1276;99211;-69
2022/04/18 09:30:30;;;;;;;11.70;4.60;;;;;;;10.44;43.92;99008.61;105918;1276;98025;-71
2022/04/18 09:33:08;;;;;;;7.70;3.20;;;;;;;10.39;43.84;99002.36;105893;1276;112768;-73
2022/04/18 09:35:39;;;;;;;7.00;3.70;;;;;;;10.50;43.60;98999.85;105900;1276;99820;-69
2022/04/18 09:38:11;;;;;;;8.40;3.80;;;;;;;10.84;43.54;98996.95;105891;1278;106846;-70
2022/04/18 09:40:44;;;;;;;8.30;3.40;;;;;;;10.95;43.65;98993.83;105877;1276;99286;-69
2022/04/18 09:43:12;;;;;;;8.90;3.00;;;;;;;11.13;43.58;98986.79;105803;1276;99342;-67
2022/04/18 09:45:41;;;;;;;7.60;3.20;;;;;;;11.38;43.68;98979.77;105732;1276;112237;-69
2022/04/18 09:48:16;;;;;;;10.60;3.80;;;;;;;11.69;43.61;98980.95;105963;1276;96606;-69
2022/04/18 09:50:59;;;;;;;10.10;3.70;;;;;;;11.81;43.55;98970.53;105893;1276;107497;-67
2022/04/18 09:53:28;;;;;;;8.70;3.30;;;;;;;11.79;43.34;98975.38;105939;1276;97234;-69
2022/04/18 09:55:58;;;;;;;8.60;3.40;;;;;;;11.76;43.49;98970.95;105841;1276;99229;-70
2022/04/18 09:58:26;;;;;;;6.90;3.00;;;;;;;11.87;43.41;98970.65;106026;1276;113403;-71
2022/04/18 10:01:16;;;;;;;9.40;3.20;;;;;;;12.01;43.38;98968.61;105916;1276;99266;-71
2022/04/18 10:03:44;;;;;;;6.40;2.70;;;;;;;12.10;43.42;98960.46;105921;1276;108885;-69
2022/04/18 10:06:14;;;;;;;15.00;4.10;;;;;;;12.00;43.17;98961.30;105798;1276;99352;-72
2022/04/18 10:08:42;;;;;;;11.30;3.70;;;;;;;11.82;43.02;98968.49;105911;1276;99294;-68
2022/04/18 10:11:12;;;;;;;8.40;3.50;;;;;;;11.68;43.00;98969.13;105809;1276;113539;-69
2022/04/18 10:13:41;;;;;;;13.40;4.40;;;;;;;11.53;42.95;98963.48;105788;1276;99258;-67
2022/04/18 10:16:14;;;;;;;12.00;4.50;;;;;;;11.40;42.89;98963.86;105798;1276;108432;-67
2022/04/18 10:18:54;;;;;;;8.90;3.10;;;;;;;11.26;42.90;98960.29;105811;1276;97972;-69
2022/04/18 10:21:30;;;;;;;8.20;3.50;;;;;;;11.06;42.82;98956.67;105730;1276;99607;-69
2022/04/18 10:23:58;;;;;;;12.10;3.90;;;;;;;10.93;42.77;98954.95;107554;1276;113035;-68
2022/04/18 10:26:51;;;;;;;6.00;2.90;;;;;;;10.89;42.80;98951.01;106109;1276;99317;-66
2022/04/18 10:29:50;;;;;;;10.40;3.60;;;;;;;10.89;42.65;98949.27;105694;1276;108488;-68
2022/04/18 10:32:25;;;;;;;12.20;3.30;;;;;;;10.89;42.57;98942.88;105790;1277;97744;-69
2022/04/18 10:34:58;;;;;;;7.10;2.80;;;;;;;10.96;42.75;98945.86;105766;1276;99238;-65
2022/04/18 10:37:28;;;;;;;8.30;3.10;;;;;;;10.99;42.50;98940.13;105756;1277;113384;-67
2022/04/18 10:40:00;;;;;;;6.70;3.10;;;;;;;10.99;42.60;98947.78;105775;1276;99234;-69
2022/04/18 10:42:36;;;;;;;5.80;2.90;;;;;;;10.89;42.27;98944.80;105819;1278;108003;-68
2022/04/18 10:45:14;;;;;;;9.00;3.30;;;;;;;10.72;42.27;98945.16;105667;1277;99338;-68
2022/04/18 10:48:05;;;;;;;9.70;3.30;;;;;;;10.62;42.30;98948.98;105802;1278;99322;-65
2022/04/18 10:50:41;;;;;;;6.90;2.80;;;;;;;10.51;42.19;98951.38;105757;1279;113726;-66
2022/04/18 10:53:12;;;;;;;9.00;3.40;;;;;;;10.47;42.21;98948.30;105762;1278;99273;-66
2022/04/18 10:55:52;;;;;;;7.70;3.30;;;;;;;10.47;42.31;98944.38;105708;1278;108422;-68
2022/04/18 10:58:27;;;;;;;18.00;6.90;;;;;;;10.52;42.32;98941.02;105729;1279;100355;-68
2022/04/18 11:01:01;;;;;;;10.10;3.70;;;;;;;10.56;42.26;98941.23;105823;1279;99399;-66
2022/04/18 11:03:36;;;;;;;7.90;2.80;;;;;;;10.58;42.07;98937.02;105782;1278;113403;-66
2022/04/18 11:06:16;;;;;;;9.80;3.00;;;;;;;10.59;42.17;98933.39;105847;1277;99305;-67
2022/04/18 11:09:01;;;;;;;8.10;3.10;;;;;;;10.60;42.05;98930.48;105746;1278;107877;-68
2022/04/18 11:11:36;;;;;;;8.40;3.20;;;;;;;10.46;41.79;98936.98;105577;1279;99241;-69
2022/04/18 11:14:25;;;;;;;8.10;2.90;;;;;;;10.29;41.85;98938.39;105745;1279;99334;-70
2022/04/18 11:17:01;;;;;;;7.90;3.30;;;;;;;10.23;41.98;98935.44;105835;1278;112745;-67
2022/04/18 11:19:38;;;;;;;12.50;4.20;;;;;;;10.18;42.01;98935.15;105794;1278;99871;-68
2022/04/18 11:22:22;;;;;;;14.10;4.30;;;;;;;10.13;41.99;98933.02;105739;1279;108434;-68
2022/04/18 11:24:51;;;;;;;15.30;4.90;;;;;;;10.10;41.79;98931.28;105742;1279;99112;-68
2022/04/18 11:27:26;;;;;;;6.10;2.60;;;;;;;10.04;41.74;98930.49;105742;1279;99352;-69
2022/04/18 11:30:01;;;;;;;9.20;3.40;;;;;;;9.96;41.72;98927.50;105770;1278;113371;-69
2022/04/18 11:32:37;;;;;;;7.20;2.90;;;;;;;9.92;41.79;98926.54;105775;1278;99328;-68
2022/04/18 11:35:13;;;;;;;9.90;2.90;;;;;;;9.94;41.86;98930.30;105805;1278;108416;-68
2022/04/18 11:37:44;;;;;;;6.00;2.70;;;;;;;9.96;41.73;98926.77;105735;1278;99246;-68
2022/04/18 11:40:15;;;;;;;11.40;3.90;;;;;;;9.93;41.65;98923.27;105686;1278;99245;-69
2022/04/18 11:42:45;;;;;;;8.70;3.10;;;;;;;9.85;41.75;98928.45;105713;1276;113343;-68
2022/04/18 11:45:27;;;;;;;7.90;2.90;;;;;;;9.77;41.85;98929.58;105720;1277;100126;-68
2022/04/18 11:47:55;;;;;;;9.40;3.40;;;;;;;9.70;41.81;98934.11;105756;1276;107710;-69
2022/04/18 11:50:24;;;;;;;8.10;3.60;;;;;;;9.66;41.92;98937.91;105797;1276;97875;-68
2022/04/18 11:53:07;;;;;;;6.80;2.90;;;;;;;9.66;41.84;98935.67;105963;1276;99215;-68